sensor_id;sensor_type;location;lat;lon;timestamp;pressure;altitude;pressure_sealevel;temperature
72405;BMP280;60395;52.020;113.548;2022-12-29T00:01:00;93408.75;;;-19.27
72405;BMP280;60395;52.020;113.548;2022-12-29T00:04:04;93418.09;;;-19.33
72405;BMP280;60395;52.020;113.548;2022-12-29T00:07:15;93417.22;;;-19.35
72405;BMP280;60395;52.020;113.548;2022-12-29T00:10:19;93422.66;;;-19.37
72405;BMP280;60395;52.020;113.548;2022-12-29T00:13:22;93426.75;;;-19.34
72405;BMP280;60395;52.020;113.548;2022-12-29T00:16:45;93420.84;;;-19.31
72405;BMP280;60395;52.020;113.548;2022-12-29T00:19:48;93417.22;;;-19.35
72405;BMP280;60395;52.020;113.548;2022-12-29T00:23:09;93416.78;;;-19.39
72405;BMP280;60395;52.020;113.548;2022-12-29T00:26:31;93419.25;;;-19.45
72405;BMP280;60395;52.020;113.548;2022-12-29T00:29:52;93414.25;;;-19.45
72405;BMP280;60395;52.020;113.548;2022-12-29T00:33:16;93411.97;;;-19.43
72405;BMP280;60395;52.020;113.548;2022-12-29T00:36:40;93406.50;;;-19.41
72405;BMP280;60395;52.020;113.548;2022-12-29T00:39:45;93424.03;;;-19.41
72405;BMP280;60395;52.020;113.548;2022-12-29T00:43:06;93417.88;;;-19.40
72405;BMP280;60395;52.020;113.548;2022-12-29T00:46:28;93412.19;;;-19.24
72405;BMP280;60395;52.020;113.548;2022-12-29T00:49:32;93411.50;;;-19.08
72405;BMP280;60395;52.020;113.548;2022-12-29T00:52:35;93414.19;;;-19.00
72405;BMP280;60395;52.020;113.548;2022-12-29T00:55:38;93421.47;;;-18.97
72405;BMP280;60395;52.020;113.548;2022-12-29T00:58:41;93416.22;;;-18.87
72405;BMP280;60395;52.020;113.548;2022-12-29T01:01:46;93408.91;;;-18.74
72405;BMP280;60395;52.020;113.548;2022-12-29T01:04:49;93405.25;;;-18.73
72405;BMP280;60395;52.020;113.548;2022-12-29T01:07:52;93403.28;;;-19.03
72405;BMP280;60395;52.020;113.548;2022-12-29T01:11:10;93397.19;;;-19.41
72405;BMP280;60395;52.020;113.548;2022-12-29T01:14:13;93396.50;;;-19.58
72405;BMP280;60395;52.020;113.548;2022-12-29T01:17:16;93398.56;;;-19.51
72405;BMP280;60395;52.020;113.548;2022-12-29T01:20:19;93398.56;;;-19.29
72405;BMP280;60395;52.020;113.548;2022-12-29T01:23:22;93406.91;;;-18.98
72405;BMP280;60395;52.020;113.548;2022-12-29T01:26:26;93408.47;;;-18.78
72405;BMP280;60395;52.020;113.548;2022-12-29T01:29:29;93409.06;;;-18.61
72405;BMP280;60395;52.020;113.548;2022-12-29T01:32:33;93412.91;;;-18.49
72405;BMP280;60395;52.020;113.548;2022-12-29T01:35:36;93408.69;;;-18.76
72405;BMP280;60395;52.020;113.548;2022-12-29T01:38:40;93398.75;;;-19.27
72405;BMP280;60395;52.020;113.548;2022-12-29T01:41:43;93400.59;;;-19.49
72405;BMP280;60395;52.020;113.548;2022-12-29T01:44:51;93400.59;;;-19.33
72405;BMP280;60395;52.020;113.548;2022-12-29T01:47:56;93406.22;;;-19.04
72405;BMP280;60395;52.020;113.548;2022-12-29T01:51:00;93401.63;;;-18.83
72405;BMP280;60395;52.020;113.548;2022-12-29T01:54:08;93399.53;;;-18.68
72405;BMP280;60395;52.020;113.548;2022-12-29T01:57:20;93402.22;;;-18.55
72405;BMP280;60395;52.020;113.548;2022-12-29T02:00:24;93403.31;;;-18.39
72405;BMP280;60395;52.020;113.548;2022-12-29T02:03:28;93396.91;;;-18.35
72405;BMP280;60395;52.020;113.548;2022-12-29T02:06:41;93389.50;;;-18.16
72405;BMP280;60395;52.020;113.548;2022-12-29T02:09:51;93396.16;;;-18.18
72405;BMP280;60395;52.020;113.548;2022-12-29T02:12:54;93393.38;;;-18.15
72405;BMP280;60395;52.020;113.548;2022-12-29T02:19:47;93395.44;;;-18.13
72405;BMP280;60395;52.020;113.548;2022-12-29T02:33:25;93387.03;;;-16.83
72405;BMP280;60395;52.020;113.548;2022-12-29T02:46:45;93381.00;;;-16.36
72405;BMP280;60395;52.020;113.548;2022-12-29T02:50:19;93382.09;;;-16.32
72405;BMP280;60395;52.020;113.548;2022-12-29T02:53:23;93367.84;;;-16.24
72405;BMP280;60395;52.020;113.548;2022-12-29T02:56:46;93364.94;;;-16.15
72405;BMP280;60395;52.020;113.548;2022-12-29T02:59:53;93370.81;;;-16.25
72405;BMP280;60395;52.020;113.548;2022-12-29T03:06:52;93360.63;;;-16.01
72405;BMP280;60395;52.020;113.548;2022-12-29T03:10:14;93354.69;;;-15.71
72405;BMP280;60395;52.020;113.548;2022-12-29T03:17:09;93343.03;;;-15.43
72405;BMP280;60395;52.020;113.548;2022-12-29T03:20:20;93342.34;;;-15.43
72405;BMP280;60395;52.020;113.548;2022-12-29T03:23:29;93325.59;;;-15.41
72405;BMP280;60395;52.020;113.548;2022-12-29T03:26:32;93327.25;;;-15.30
72405;BMP280;60395;52.020;113.548;2022-12-29T03:29:40;93326.44;;;-15.12
72405;BMP280;60395;52.020;113.548;2022-12-29T03:32:53;93316.72;;;-14.94
72405;BMP280;60395;52.020;113.548;2022-12-29T03:36:03;93313.75;;;-14.72
72405;BMP280;60395;52.020;113.548;2022-12-29T03:39:12;93305.84;;;-14.55
72405;BMP280;60395;52.020;113.548;2022-12-29T03:42:20;93300.41;;;-14.80
72405;BMP280;60395;52.020;113.548;2022-12-29T03:45:24;93287.13;;;-15.15
72405;BMP280;60395;52.020;113.548;2022-12-29T03:48:28;93290.00;;;-15.11
72405;BMP280;60395;52.020;113.548;2022-12-29T03:51:31;93287.13;;;-14.81
72405;BMP280;60395;52.020;113.548;2022-12-29T03:54:36;93281.56;;;-14.66
72405;BMP280;60395;52.020;113.548;2022-12-29T03:57:40;93274.53;;;-14.60
72405;BMP280;60395;52.020;113.548;2022-12-29T04:00:47;93264.78;;;-14.43
72405;BMP280;60395;52.020;113.548;2022-12-29T04:03:52;93257.97;;;-14.27
72405;BMP280;60395;52.020;113.548;2022-12-29T04:06:55;93260.25;;;-14.16
72405;BMP280;60395;52.020;113.548;2022-12-29T04:09:58;93256.91;;;-14.11
72405;BMP280;60395;52.020;113.548;2022-12-29T04:13:02;93260.34;;;-14.00
72405;BMP280;60395;52.020;113.548;2022-12-29T04:16:06;93262.38;;;-13.99
72405;BMP280;60395;52.020;113.548;2022-12-29T04:19:10;93256.34;;;-13.96
72405;BMP280;60395;52.020;113.548;2022-12-29T04:22:14;93258.28;;;-13.81
72405;BMP280;60395;52.020;113.548;2022-12-29T04:25:19;93253.50;;;-13.64
72405;BMP280;60395;52.020;113.548;2022-12-29T04:28:23;93249.13;;;-13.56
72405;BMP280;60395;52.020;113.548;2022-12-29T04:31:37;93254.22;;;-13.48
72405;BMP280;60395;52.020;113.548;2022-12-29T04:34:41;93239.09;;;-13.33
72405;BMP280;60395;52.020;113.548;2022-12-29T04:37:45;93234.09;;;-13.18
72405;BMP280;60395;52.020;113.548;2022-12-29T04:40:49;93229.03;;;-13.18
72405;BMP280;60395;52.020;113.548;2022-12-29T04:43:56;93225.84;;;-13.18
72405;BMP280;60395;52.020;113.548;2022-12-29T04:46:59;93220.31;;;-13.09
72405;BMP280;60395;52.020;113.548;2022-12-29T04:50:28;93222.38;;;-12.92
72405;BMP280;60395;52.020;113.548;2022-12-29T04:53:46;93223.72;;;-12.84
72405;BMP280;60395;52.020;113.548;2022-12-29T04:56:49;93214.44;;;-12.81
72405;BMP280;60395;52.020;113.548;2022-12-29T04:59:52;93199.25;;;-12.73
72405;BMP280;60395;52.020;113.548;2022-12-29T05:02:57;93205.31;;;-12.69
72405;BMP280;60395;52.020;113.548;2022-12-29T05:06:00;93193.03;;;-12.72
72405;BMP280;60395;52.020;113.548;2022-12-29T05:09:03;93186.09;;;-12.57
72405;BMP280;60395;52.020;113.548;2022-12-29T05:12:08;93183.53;;;-12.34
72405;BMP280;60395;52.020;113.548;2022-12-29T05:15:18;93175.22;;;-12.04
72405;BMP280;60395;52.020;113.548;2022-12-29T05:18:22;93174.66;;;-11.87
72405;BMP280;60395;52.020;113.548;2022-12-29T05:21:25;93160.78;;;-11.86
72405;BMP280;60395;52.020;113.548;2022-12-29T05:24:29;93166.88;;;-11.82
72405;BMP280;60395;52.020;113.548;2022-12-29T05:27:32;93151.31;;;-11.78
72405;BMP280;60395;52.020;113.548;2022-12-29T05:30:51;93152.97;;;-11.65
72405;BMP280;60395;52.020;113.548;2022-12-29T05:33:54;93155.91;;;-11.52
72405;BMP280;60395;52.020;113.548;2022-12-29T05:36:57;93150.53;;;-11.56
72405;BMP280;60395;52.020;113.548;2022-12-29T05:40:00;93141.97;;;-11.68
72405;BMP280;60395;52.020;113.548;2022-12-29T05:43:04;93136.13;;;-11.78
72405;BMP280;60395;52.020;113.548;2022-12-29T05:46:38;93127.19;;;-11.87
72405;BMP280;60395;52.020;113.548;2022-12-29T05:49:50;93126.25;;;-11.99
72405;BMP280;60395;52.020;113.548;2022-12-29T05:53:03;93133.19;;;-12.07
72405;BMP280;60395;52.020;113.548;2022-12-29T05:56:06;93129.66;;;-12.12
72405;BMP280;60395;52.020;113.548;2022-12-29T05:59:10;93128.50;;;-12.18
72405;BMP280;60395;52.020;113.548;2022-12-29T06:02:13;93124.78;;;-12.25
72405;BMP280;60395;52.020;113.548;2022-12-29T06:05:17;93118.41;;;-12.26
72405;BMP280;60395;52.020;113.548;2022-12-29T06:08:20;93119.75;;;-12.17
72405;BMP280;60395;52.020;113.548;2022-12-29T06:11:23;93115.44;;;-11.99
72405;BMP280;60395;52.020;113.548;2022-12-29T06:14:30;93116.25;;;-11.97
72405;BMP280;60395;52.020;113.548;2022-12-29T06:17:34;93105.16;;;-12.01
72405;BMP280;60395;52.020;113.548;2022-12-29T06:20:39;93100.78;;;-12.09
72405;BMP280;60395;52.020;113.548;2022-12-29T06:23:42;93101.53;;;-12.16
72405;BMP280;60395;52.020;113.548;2022-12-29T06:26:46;93099.78;;;-12.05
72405;BMP280;60395;52.020;113.548;2022-12-29T06:29:49;93091.13;;;-11.95
72405;BMP280;60395;52.020;113.548;2022-12-29T06:32:52;93094.22;;;-11.71
72405;BMP280;60395;52.020;113.548;2022-12-29T06:35:58;93092.09;;;-11.58
72405;BMP280;60395;52.020;113.548;2022-12-29T06:39:01;93085.81;;;-11.49
72405;BMP280;60395;52.020;113.548;2022-12-29T06:42:09;93078.59;;;-11.35
72405;BMP280;60395;52.020;113.548;2022-12-29T06:45:30;93078.38;;;-11.30
72405;BMP280;60395;52.020;113.548;2022-12-29T06:48:34;93084.34;;;-11.35
72405;BMP280;60395;52.020;113.548;2022-12-29T06:51:37;93074.94;;;-11.42
72405;BMP280;60395;52.020;113.548;2022-12-29T06:54:40;93078.81;;;-11.41
72405;BMP280;60395;52.020;113.548;2022-12-29T06:57:43;93076.28;;;-11.41
72405;BMP280;60395;52.020;113.548;2022-12-29T07:00:46;93074.41;;;-11.16
72405;BMP280;60395;52.020;113.548;2022-12-29T07:03:50;93059.06;;;-10.83
72405;BMP280;60395;52.020;113.548;2022-12-29T07:06:53;93060.50;;;-10.73
72405;BMP280;60395;52.020;113.548;2022-12-29T07:09:56;93062.56;;;-10.96
72405;BMP280;60395;52.020;113.548;2022-12-29T07:12:59;93053.22;;;-11.28
72405;BMP280;60395;52.020;113.548;2022-12-29T07:16:07;93059.63;;;-11.52
72405;BMP280;60395;52.020;113.548;2022-12-29T07:19:10;93061.03;;;-11.58
72405;BMP280;60395;52.020;113.548;2022-12-29T07:22:13;93058.25;;;-11.53
72405;BMP280;60395;52.020;113.548;2022-12-29T07:25:16;93055.25;;;-11.51
72405;BMP280;60395;52.020;113.548;2022-12-29T07:28:19;93053.88;;;-11.52
72405;BMP280;60395;52.020;113.548;2022-12-29T07:31:23;93053.34;;;-11.43
72405;BMP280;60395;52.020;113.548;2022-12-29T07:34:26;93060.59;;;-11.47
72405;BMP280;60395;52.020;113.548;2022-12-29T07:37:29;93058.13;;;-11.55
72405;BMP280;60395;52.020;113.548;2022-12-29T07:40:33;93057.22;;;-11.75
72405;BMP280;60395;52.020;113.548;2022-12-29T07:43:36;93049.91;;;-11.88
72405;BMP280;60395;52.020;113.548;2022-12-29T07:47:09;93055.03;;;-11.70
72405;BMP280;60395;52.020;113.548;2022-12-29T07:50:12;93054.72;;;-11.50
72405;BMP280;60395;52.020;113.548;2022-12-29T07:53:16;93048.69;;;-11.37
72405;BMP280;60395;52.020;113.548;2022-12-29T07:56:19;93050.19;;;-11.51
72405;BMP280;60395;52.020;113.548;2022-12-29T07:59:22;93037.88;;;-12.12
72405;BMP280;60395;52.020;113.548;2022-12-29T08:02:25;93039.63;;;-12.78
72405;BMP280;60395;52.020;113.548;2022-12-29T08:05:33;93033.28;;;-13.17
72405;BMP280;60395;52.020;113.548;2022-12-29T08:08:36;93020.84;;;-13.37
72405;BMP280;60395;52.020;113.548;2022-12-29T08:11:40;93026.53;;;-13.52
72405;BMP280;60395;52.020;113.548;2022-12-29T08:14:45;93021.50;;;-13.52
72405;BMP280;60395;52.020;113.548;2022-12-29T08:17:48;93011.59;;;-13.50
72405;BMP280;60395;52.020;113.548;2022-12-29T08:20:51;93020.19;;;-13.38
72405;BMP280;60395;52.020;113.548;2022-12-29T08:23:56;93016.44;;;-13.29
72405;BMP280;60395;52.020;113.548;2022-12-29T08:27:01;93021.34;;;-13.24
72405;BMP280;60395;52.020;113.548;2022-12-29T08:30:18;93018.31;;;-13.15
72405;BMP280;60395;52.020;113.548;2022-12-29T08:33:22;93014.44;;;-13.16
72405;BMP280;60395;52.020;113.548;2022-12-29T08:36:25;93010.59;;;-13.32
72405;BMP280;60395;52.020;113.548;2022-12-29T08:39:29;93010.06;;;-13.46
72405;BMP280;60395;52.020;113.548;2022-12-29T08:42:32;93009.22;;;-13.48
72405;BMP280;60395;52.020;113.548;2022-12-29T08:45:36;93006.19;;;-13.47
72405;BMP280;60395;52.020;113.548;2022-12-29T08:48:39;93009.06;;;-13.43
72405;BMP280;60395;52.020;113.548;2022-12-29T08:51:42;93007.56;;;-13.46
72405;BMP280;60395;52.020;113.548;2022-12-29T08:54:45;93007.03;;;-13.59
72405;BMP280;60395;52.020;113.548;2022-12-29T08:57:49;93011.41;;;-13.60
72405;BMP280;60395;52.020;113.548;2022-12-29T09:00:55;93011.06;;;-13.56
72405;BMP280;60395;52.020;113.548;2022-12-29T09:03:58;93015.13;;;-13.53
72405;BMP280;60395;52.020;113.548;2022-12-29T09:07:19;93010.75;;;-13.60
72405;BMP280;60395;52.020;113.548;2022-12-29T09:10:22;93005.31;;;-13.80
72405;BMP280;60395;52.020;113.548;2022-12-29T09:13:25;93001.78;;;-13.99
72405;BMP280;60395;52.020;113.548;2022-12-29T09:16:28;92997.91;;;-14.00
72405;BMP280;60395;52.020;113.548;2022-12-29T09:19:32;93000.94;;;-13.94
72405;BMP280;60395;52.020;113.548;2022-12-29T09:22:36;92998.22;;;-13.96
72405;BMP280;60395;52.020;113.548;2022-12-29T09:25:39;93002.13;;;-13.95
72405;BMP280;60395;52.020;113.548;2022-12-29T09:28:42;93004.50;;;-13.90
72405;BMP280;60395;52.020;113.548;2022-12-29T09:31:47;93000.97;;;-13.87
72405;BMP280;60395;52.020;113.548;2022-12-29T09:34:50;93002.81;;;-13.87
72405;BMP280;60395;52.020;113.548;2022-12-29T09:37:54;92987.44;;;-14.12
72405;BMP280;60395;52.020;113.548;2022-12-29T09:41:06;92991.09;;;-14.44
72405;BMP280;60395;52.020;113.548;2022-12-29T09:47:21;92987.25;;;-14.73
72405;BMP280;60395;52.020;113.548;2022-12-29T09:50:37;92977.47;;;-14.84
72405;BMP280;60395;52.020;113.548;2022-12-29T09:53:43;92972.22;;;-14.94
72405;BMP280;60395;52.020;113.548;2022-12-29T09:56:49;92973.50;;;-15.08
72405;BMP280;60395;52.020;113.548;2022-12-29T10:00:05;92971.13;;;-15.06
72405;BMP280;60395;52.020;113.548;2022-12-29T10:03:17;92975.25;;;-14.88
72405;BMP280;60395;52.020;113.548;2022-12-29T10:13:42;92976.53;;;-14.66
72405;BMP280;60395;52.020;113.548;2022-12-29T10:16:56;92965.22;;;-14.80
72405;BMP280;60395;52.020;113.548;2022-12-29T10:23:33;92957.91;;;-14.99
72405;BMP280;60395;52.020;113.548;2022-12-29T10:26:43;92950.84;;;-15.00
72405;BMP280;60395;52.020;113.548;2022-12-29T10:29:54;92950.72;;;-14.95
72405;BMP280;60395;52.020;113.548;2022-12-29T10:33:04;92946.69;;;-14.90
72405;BMP280;60395;52.020;113.548;2022-12-29T10:36:16;92945.88;;;-14.85
72405;BMP280;60395;52.020;113.548;2022-12-29T10:42:42;92952.63;;;-14.80
72405;BMP280;60395;52.020;113.548;2022-12-29T10:45:46;92949.88;;;-14.90
72405;BMP280;60395;52.020;113.548;2022-12-29T10:48:50;92950.56;;;-14.89
72405;BMP280;60395;52.020;113.548;2022-12-29T10:51:56;92957.59;;;-14.95
72405;BMP280;60395;52.020;113.548;2022-12-29T10:55:07;92948.03;;;-14.89
72405;BMP280;60395;52.020;113.548;2022-12-29T10:58:13;92948.75;;;-14.81
72405;BMP280;60395;52.020;113.548;2022-12-29T11:01:18;92946.59;;;-14.77
72405;BMP280;60395;52.020;113.548;2022-12-29T11:08:10;92936.13;;;-14.89
72405;BMP280;60395;52.020;113.548;2022-12-29T11:11:23;92931.09;;;-14.89
72405;BMP280;60395;52.020;113.548;2022-12-29T11:14:30;92934.28;;;-14.88
72405;BMP280;60395;52.020;113.548;2022-12-29T11:18:03;92923.53;;;-14.89
72405;BMP280;60395;52.020;113.548;2022-12-29T11:21:27;92927.44;;;-14.72
72405;BMP280;60395;52.020;113.548;2022-12-29T11:24:31;92920.97;;;-14.53
72405;BMP280;60395;52.020;113.548;2022-12-29T11:27:34;92915.59;;;-14.41
72405;BMP280;60395;52.020;113.548;2022-12-29T11:30:37;92917.66;;;-14.32
72405;BMP280;60395;52.020;113.548;2022-12-29T11:33:41;92919.97;;;-14.27
72405;BMP280;60395;52.020;113.548;2022-12-29T11:36:44;92925.72;;;-14.19
72405;BMP280;60395;52.020;113.548;2022-12-29T11:43:02;92924.91;;;-14.14
72405;BMP280;60395;52.020;113.548;2022-12-29T11:46:06;92923.19;;;-14.19
72405;BMP280;60395;52.020;113.548;2022-12-29T11:49:13;92920.84;;;-14.17
72405;BMP280;60395;52.020;113.548;2022-12-29T11:52:27;92916.97;;;-14.10
72405;BMP280;60395;52.020;113.548;2022-12-29T11:55:32;92911.13;;;-14.20
72405;BMP280;60395;52.020;113.548;2022-12-29T11:58:36;92913.22;;;-14.39
72405;BMP280;60395;52.020;113.548;2022-12-29T12:01:41;92901.28;;;-14.39
72405;BMP280;60395;52.020;113.548;2022-12-29T12:04:48;92914.09;;;-14.29
72405;BMP280;60395;52.020;113.548;2022-12-29T12:08:09;92907.56;;;-14.25
72405;BMP280;60395;52.020;113.548;2022-12-29T12:11:34;92901.69;;;-14.20
72405;BMP280;60395;52.020;113.548;2022-12-29T12:14:55;92909.41;;;-14.18
72405;BMP280;60395;52.020;113.548;2022-12-29T12:18:30;92910.91;;;-14.22
72405;BMP280;60395;52.020;113.548;2022-12-29T12:21:39;92909.06;;;-14.29
72405;BMP280;60395;52.020;113.548;2022-12-29T12:28:25;92900.31;;;-14.44
72405;BMP280;60395;52.020;113.548;2022-12-29T12:31:52;92905.13;;;-14.61
72405;BMP280;60395;52.020;113.548;2022-12-29T12:34:57;92898.72;;;-14.69
72405;BMP280;60395;52.020;113.548;2022-12-29T12:38:21;92889.09;;;-14.86
72405;BMP280;60395;52.020;113.548;2022-12-29T12:41:43;92888.63;;;-15.21
72405;BMP280;60395;52.020;113.548;2022-12-29T13:02:31;92861.50;;;-15.71
72405;BMP280;60395;52.020;113.548;2022-12-29T13:19:34;92863.97;;;-16.08
72405;BMP280;60395;52.020;113.548;2022-12-29T13:26:14;92858.25;;;-16.08
72405;BMP280;60395;52.020;113.548;2022-12-29T13:29:32;92860.66;;;-16.02
72405;BMP280;60395;52.020;113.548;2022-12-29T13:32:53;92862.16;;;-15.99
72405;BMP280;60395;52.020;113.548;2022-12-29T13:36:10;92846.34;;;-16.08
72405;BMP280;60395;52.020;113.548;2022-12-29T13:39:35;92838.94;;;-16.13
72405;BMP280;60395;52.020;113.548;2022-12-29T13:42:40;92835.22;;;-16.12
72405;BMP280;60395;52.020;113.548;2022-12-29T13:45:45;92825.72;;;-16.06
72405;BMP280;60395;52.020;113.548;2022-12-29T13:49:01;92830.81;;;-15.98
72405;BMP280;60395;52.020;113.548;2022-12-29T13:52:28;92827.16;;;-15.90
72405;BMP280;60395;52.020;113.548;2022-12-29T13:55:52;92826.72;;;-16.09
72405;BMP280;60395;52.020;113.548;2022-12-29T13:59:11;92815.78;;;-16.12
72405;BMP280;60395;52.020;113.548;2022-12-29T14:05:37;92813.19;;;-15.98
72405;BMP280;60395;52.020;113.548;2022-12-29T14:08:40;92806.31;;;-15.98
72405;BMP280;60395;52.020;113.548;2022-12-29T14:11:44;92823.47;;;-15.89
72405;BMP280;60395;52.020;113.548;2022-12-29T14:14:47;92808.41;;;-15.89
72405;BMP280;60395;52.020;113.548;2022-12-29T14:21:23;92805.06;;;-15.91
72405;BMP280;60395;52.020;113.548;2022-12-29T14:27:50;92803.56;;;-15.87
72405;BMP280;60395;52.020;113.548;2022-12-29T14:30:59;92806.22;;;-15.85
72405;BMP280;60395;52.020;113.548;2022-12-29T14:37:24;92818.19;;;-15.78
72405;BMP280;60395;52.020;113.548;2022-12-29T14:40:28;92819.53;;;-15.77
72405;BMP280;60395;52.020;113.548;2022-12-29T14:43:32;92818.84;;;-15.77
72405;BMP280;60395;52.020;113.548;2022-12-29T14:56:45;92816.84;;;-16.07
72405;BMP280;60395;52.020;113.548;2022-12-29T14:59:53;92816.47;;;-16.11
72405;BMP280;60395;52.020;113.548;2022-12-29T15:03:10;92816.31;;;-16.13
72405;BMP280;60395;52.020;113.548;2022-12-29T15:06:17;92817.13;;;-16.11
72405;BMP280;60395;52.020;113.548;2022-12-29T15:09:35;92807.28;;;-16.09
72405;BMP280;60395;52.020;113.548;2022-12-29T15:12:50;92811.44;;;-16.11
72405;BMP280;60395;52.020;113.548;2022-12-29T15:15:55;92803.75;;;-16.13
72405;BMP280;60395;52.020;113.548;2022-12-29T15:18:59;92799.13;;;-16.22
72405;BMP280;60395;52.020;113.548;2022-12-29T15:22:03;92807.09;;;-16.31
72405;BMP280;60395;52.020;113.548;2022-12-29T15:25:14;92800.38;;;-16.36
72405;BMP280;60395;52.020;113.548;2022-12-29T15:28:20;92819.50;;;-16.33
72405;BMP280;60395;52.020;113.548;2022-12-29T15:31:24;92819.00;;;-16.32
72405;BMP280;60395;52.020;113.548;2022-12-29T15:34:32;92820.03;;;-16.27
72405;BMP280;60395;52.020;113.548;2022-12-29T15:37:35;92817.72;;;-16.25
72405;BMP280;60395;52.020;113.548;2022-12-29T15:40:38;92819.41;;;-16.20
72405;BMP280;60395;52.020;113.548;2022-12-29T15:47:25;92816.31;;;-16.13
72405;BMP280;60395;52.020;113.548;2022-12-29T15:50:34;92815.94;;;-16.17
72405;BMP280;60395;52.020;113.548;2022-12-29T15:53:38;92819.75;;;-16.24
72405;BMP280;60395;52.020;113.548;2022-12-29T15:56:42;92811.81;;;-16.28
72405;BMP280;60395;52.020;113.548;2022-12-29T15:59:46;92798.56;;;-16.28
72405;BMP280;60395;52.020;113.548;2022-12-29T16:02:52;92803.78;;;-16.26
72405;BMP280;60395;52.020;113.548;2022-12-29T16:06:10;92787.06;;;-16.24
72405;BMP280;60395;52.020;113.548;2022-12-29T16:09:18;92796.38;;;-16.32
72405;BMP280;60395;52.020;113.548;2022-12-29T16:12:29;92790.50;;;-16.55
72405;BMP280;60395;52.020;113.548;2022-12-29T16:15:34;92789.25;;;-16.62
72405;BMP280;60395;52.020;113.548;2022-12-29T16:18:38;92780.13;;;-16.73
72405;BMP280;60395;52.020;113.548;2022-12-29T16:21:42;92773.91;;;-16.79
72405;BMP280;60395;52.020;113.548;2022-12-29T16:24:46;92774.13;;;-16.90
72405;BMP280;60395;52.020;113.548;2022-12-29T16:27:50;92777.06;;;-16.79
72405;BMP280;60395;52.020;113.548;2022-12-29T16:31:05;92773.47;;;-16.70
72405;BMP280;60395;52.020;113.548;2022-12-29T16:34:33;92772.78;;;-16.71
72405;BMP280;60395;52.020;113.548;2022-12-29T16:37:46;92769.38;;;-16.60
72405;BMP280;60395;52.020;113.548;2022-12-29T16:41:00;92778.69;;;-16.47
72405;BMP280;60395;52.020;113.548;2022-12-29T16:47:29;92781.72;;;-16.20
72405;BMP280;60395;52.020;113.548;2022-12-29T16:50:37;92790.50;;;-16.14
72405;BMP280;60395;52.020;113.548;2022-12-29T16:53:42;92787.59;;;-16.18
72405;BMP280;60395;52.020;113.548;2022-12-29T16:56:50;92792.09;;;-16.24
72405;BMP280;60395;52.020;113.548;2022-12-29T17:00:00;92793.41;;;-16.23
72405;BMP280;60395;52.020;113.548;2022-12-29T17:03:04;92792.25;;;-16.22
72405;BMP280;60395;52.020;113.548;2022-12-29T17:06:14;92790.63;;;-16.19
72405;BMP280;60395;52.020;113.548;2022-12-29T17:09:22;92790.97;;;-16.15
72405;BMP280;60395;52.020;113.548;2022-12-29T17:12:29;92792.63;;;-16.18
72405;BMP280;60395;52.020;113.548;2022-12-29T17:15:33;92794.78;;;-16.22
72405;BMP280;60395;52.020;113.548;2022-12-29T17:18:37;92785.34;;;-16.29
72405;BMP280;60395;52.020;113.548;2022-12-29T17:21:40;92790.50;;;-16.34
72405;BMP280;60395;52.020;113.548;2022-12-29T17:24:44;92787.75;;;-16.44
72405;BMP280;60395;52.020;113.548;2022-12-29T17:27:53;92793.56;;;-16.49
72405;BMP280;60395;52.020;113.548;2022-12-29T17:31:04;92783.66;;;-16.55
72405;BMP280;60395;52.020;113.548;2022-12-29T17:34:11;92792.84;;;-16.57
72405;BMP280;60395;52.020;113.548;2022-12-29T17:40:24;92795.88;;;-16.72
72405;BMP280;60395;52.020;113.548;2022-12-29T17:43:28;92780.13;;;-16.73
72405;BMP280;60395;52.020;113.548;2022-12-29T17:46:38;92778.66;;;-16.89
72405;BMP280;60395;52.020;113.548;2022-12-29T17:49:42;92783.94;;;-17.13
72405;BMP280;60395;52.020;113.548;2022-12-29T17:52:59;92773.81;;;-17.34
72405;BMP280;60395;52.020;113.548;2022-12-29T17:56:03;92786.69;;;-17.51
72405;BMP280;60395;52.020;113.548;2022-12-29T17:59:11;92767.13;;;-17.52
72405;BMP280;60395;52.020;113.548;2022-12-29T18:05:28;92781.22;;;-17.62
72405;BMP280;60395;52.020;113.548;2022-12-29T18:08:34;92785.16;;;-17.54
72405;BMP280;60395;52.020;113.548;2022-12-29T18:11:40;92789.88;;;-17.37
72405;BMP280;60395;52.020;113.548;2022-12-29T18:14:43;92776.03;;;-17.17
72405;BMP280;60395;52.020;113.548;2022-12-29T18:17:47;92776.66;;;-17.04
72405;BMP280;60395;52.020;113.548;2022-12-29T18:20:53;92783.00;;;-16.89
72405;BMP280;60395;52.020;113.548;2022-12-29T18:23:56;92778.28;;;-16.93
72405;BMP280;60395;52.020;113.548;2022-12-29T18:26:59;92785.00;;;-16.88
72405;BMP280;60395;52.020;113.548;2022-12-29T18:30:06;92787.09;;;-16.79
72405;BMP280;60395;52.020;113.548;2022-12-29T18:33:17;92791.34;;;-16.74
72405;BMP280;60395;52.020;113.548;2022-12-29T18:36:25;92790.69;;;-16.74
72405;BMP280;60395;52.020;113.548;2022-12-29T18:39:29;92786.06;;;-16.83
72405;BMP280;60395;52.020;113.548;2022-12-29T18:42:32;92790.47;;;-16.97
72405;BMP280;60395;52.020;113.548;2022-12-29T18:45:35;92783.81;;;-17.08
72405;BMP280;60395;52.020;113.548;2022-12-29T18:48:39;92786.94;;;-17.15
72405;BMP280;60395;52.020;113.548;2022-12-29T18:51:43;92795.31;;;-17.12
72405;BMP280;60395;52.020;113.548;2022-12-29T18:54:46;92792.88;;;-17.05
72405;BMP280;60395;52.020;113.548;2022-12-29T18:57:50;92790.88;;;-17.06
72405;BMP280;60395;52.020;113.548;2022-12-29T19:00:53;92803.50;;;-16.98
72405;BMP280;60395;52.020;113.548;2022-12-29T19:03:56;92794.59;;;-16.86
72405;BMP280;60395;52.020;113.548;2022-12-29T19:06:59;92797.66;;;-16.80
72405;BMP280;60395;52.020;113.548;2022-12-29T19:10:03;92795.53;;;-16.76
72405;BMP280;60395;52.020;113.548;2022-12-29T19:13:06;92791.72;;;-16.69
72405;BMP280;60395;52.020;113.548;2022-12-29T19:16:21;92795.03;;;-16.75
72405;BMP280;60395;52.020;113.548;2022-12-29T19:19:24;92788.44;;;-16.78
72405;BMP280;60395;52.020;113.548;2022-12-29T19:22:28;92792.44;;;-16.82
72405;BMP280;60395;52.020;113.548;2022-12-29T19:25:31;92787.28;;;-16.97